createdAt,value
2023-01-30T00:01:24.513Z,3.60
2023-01-30T00:03:51.711Z,3.60
2023-01-30T00:06:18.915Z,3.60
2023-01-30T00:08:46.049Z,3.60
2023-01-30T00:11:13.780Z,3.60
2023-01-30T00:13:41.282Z,3.60
2023-01-30T00:16:09.738Z,3.70
2023-01-30T00:18:37.503Z,3.60
2023-01-30T00:21:05.664Z,3.70
2023-01-30T00:23:33.054Z,3.70
2023-01-30T00:26:00.558Z,3.70
2023-01-30T00:28:27.878Z,3.70
2023-01-30T00:30:55.212Z,3.70
2023-01-30T00:33:24.713Z,3.80
2023-01-30T00:35:52.928Z,3.80
2023-01-30T00:38:20.123Z,3.80
2023-01-30T00:40:48.298Z,3.80
2023-01-30T00:43:34.226Z,3.80
2023-01-30T00:46:20.958Z,3.90
2023-01-30T00:48:47.817Z,3.80
2023-01-30T00:51:14.681Z,3.90
2023-01-30T00:53:41.609Z,3.80
2023-01-30T00:56:08.346Z,3.90
2023-01-30T00:58:35.413Z,3.90
2023-01-30T01:01:04.230Z,3.90
2023-01-30T01:03:31.143Z,3.90
2023-01-30T01:05:58.203Z,4.00
2023-01-30T01:08:25.454Z,4.00
2023-01-30T01:10:52.745Z,4.00
2023-01-30T01:13:19.488Z,4.00
2023-01-30T01:15:47.316Z,4.00
2023-01-30T01:18:14.400Z,4.10
2023-01-30T01:20:41.841Z,4.10
2023-01-30T01:23:10.095Z,4.10
2023-01-30T01:25:36.967Z,4.20
2023-01-30T01:28:21.785Z,4.20
2023-01-30T01:31:37.884Z,4.20
2023-01-30T01:34:31.353Z,4.20
2023-01-30T01:37:15.898Z,4.30
2023-01-30T01:40:38.258Z,4.20
2023-01-30T01:43:20.150Z,4.30
2023-01-30T01:45:48.885Z,4.30
2023-01-30T01:48:27.642Z,4.30
2023-01-30T01:51:11.502Z,4.30
2023-01-30T01:53:44.069Z,4.30
2023-01-30T01:56:16.910Z,4.30
2023-01-30T01:58:49.541Z,4.30
2023-01-30T02:01:38.947Z,4.30
2023-01-30T02:04:10.557Z,4.30
2023-01-30T02:06:46.398Z,4.30
2023-01-30T02:09:15.034Z,4.30
2023-01-30T02:11:47.649Z,4.30
2023-01-30T02:14:15.861Z,4.40
2023-01-30T02:16:44.699Z,4.30
2023-01-30T02:19:22.843Z,4.30
2023-01-30T02:22:10.157Z,4.40
2023-01-30T02:25:50.024Z,4.30
2023-01-30T02:28:19.800Z,4.40
2023-01-30T02:31:03.767Z,4.40
2023-01-30T02:33:36.636Z,4.40
2023-01-30T02:36:05.643Z,4.40
2023-01-30T02:38:40.531Z,4.40
2023-01-30T02:41:11.819Z,4.40
2023-01-30T02:44:02.796Z,4.40
2023-01-30T02:46:42.755Z,4.40
2023-01-30T02:49:49.665Z,4.50
2023-01-30T02:57:06.254Z,4.50
2023-01-30T03:00:07.907Z,4.50
2023-01-30T03:02:45.068Z,4.50
2023-01-30T03:08:39.290Z,4.60
2023-01-30T03:11:17.504Z,4.50
2023-01-30T03:14:50.275Z,4.50
2023-01-30T03:17:38.165Z,4.50
2023-01-30T03:20:05.970Z,4.60
2023-01-30T03:22:32.873Z,4.60
2023-01-30T03:24:59.753Z,4.60
2023-01-30T03:27:26.909Z,4.60
2023-01-30T03:29:53.907Z,4.60
2023-01-30T03:32:21.290Z,4.60
2023-01-30T03:34:48.151Z,4.70
2023-01-30T03:42:50.011Z,4.70
2023-01-30T03:45:17.525Z,4.70
2023-01-30T03:47:47.565Z,4.80
2023-01-30T03:50:15.972Z,4.70
2023-01-30T03:52:46.952Z,4.80
2023-01-30T03:55:18.437Z,4.80
2023-01-30T03:57:45.709Z,4.80
2023-01-30T04:00:15.757Z,4.80
2023-01-30T04:02:49.212Z,4.80
2023-01-30T04:05:18.474Z,4.80
2023-01-30T04:07:51.294Z,4.90
2023-01-30T04:10:19.934Z,4.90
2023-01-30T04:12:46.993Z,4.80
2023-01-30T04:15:14.011Z,4.90
2023-01-30T04:17:52.204Z,4.90
2023-01-30T04:20:39.119Z,4.90
2023-01-30T04:23:06.861Z,4.90
2023-01-30T04:25:33.841Z,4.90
2023-01-30T04:28:02.905Z,4.90
2023-01-30T04:30:38.065Z,5.00
2023-01-30T04:33:25.316Z,5.00
2023-01-30T04:35:54.210Z,5.00
2023-01-30T04:38:21.895Z,5.00
2023-01-30T04:40:59.455Z,5.00
2023-01-30T04:43:30.712Z,5.00
2023-01-30T04:46:17.207Z,5.00
2023-01-30T04:48:46.280Z,5.00
2023-01-30T04:51:13.447Z,5.00
2023-01-30T04:53:41.117Z,5.00
2023-01-30T04:56:09.528Z,5.00
2023-01-30T04:58:36.607Z,5.00
2023-01-30T05:01:22.553Z,5.00
2023-01-30T05:03:50.393Z,5.10
2023-01-30T05:06:17.231Z,5.10
2023-01-30T05:08:46.741Z,5.10
2023-01-30T05:11:13.781Z,5.10
2023-01-30T05:13:40.499Z,5.10
2023-01-30T05:16:07.529Z,5.10
2023-01-30T05:18:34.363Z,5.10
2023-01-30T05:21:20.522Z,5.10
2023-01-30T05:23:47.289Z,5.20
2023-01-30T05:26:14.508Z,5.10
2023-01-30T05:28:41.762Z,5.20
2023-01-30T05:31:10.197Z,5.20
2023-01-30T05:33:37.795Z,5.20
2023-01-30T05:36:05.037Z,5.20
2023-01-30T05:38:31.933Z,5.20
2023-01-30T05:41:00.265Z,5.20
2023-01-30T05:43:27.351Z,5.20
2023-01-30T05:45:54.943Z,5.20
2023-01-30T05:48:23.528Z,5.20
2023-01-30T05:50:52.532Z,5.30
2023-01-30T05:53:20.148Z,5.30
2023-01-30T05:55:46.983Z,5.30
2023-01-30T05:58:13.943Z,5.40
2023-01-30T06:00:41.042Z,5.40
2023-01-30T06:03:07.848Z,5.40
2023-01-30T06:05:37.398Z,5.40
2023-01-30T06:08:04.121Z,5.40
2023-01-30T06:10:30.753Z,5.40
2023-01-30T06:12:57.505Z,5.40
2023-01-30T06:15:24.277Z,5.50
2023-01-30T06:17:51.125Z,5.40
2023-01-30T06:20:18.260Z,5.50
2023-01-30T06:22:45.218Z,5.50
2023-01-30T06:25:12.296Z,5.50
2023-01-30T06:27:39.049Z,5.60
2023-01-30T06:30:05.957Z,5.60
2023-01-30T06:32:32.783Z,5.60
2023-01-30T06:35:01.829Z,5.70
2023-01-30T06:37:28.681Z,5.70
2023-01-30T06:39:55.460Z,5.70
2023-01-30T06:42:22.364Z,5.70
2023-01-30T06:44:49.320Z,5.70
2023-01-30T06:47:16.089Z,5.80
2023-01-30T06:49:42.780Z,5.80
2023-01-30T06:52:09.984Z,5.90
2023-01-30T06:54:36.764Z,5.80
2023-01-30T06:57:04.404Z,5.90
2023-01-30T06:59:31.387Z,5.90
2023-01-30T07:01:58.209Z,5.90
2023-01-30T07:04:25.171Z,5.80
2023-01-30T07:06:52.012Z,5.90
2023-01-30T07:09:18.929Z,5.90
2023-01-30T07:11:48.798Z,6.00
2023-01-30T07:14:15.756Z,6.00
2023-01-30T07:16:42.411Z,6.10
2023-01-30T07:19:09.207Z,6.10
2023-01-30T07:21:35.992Z,6.10
2023-01-30T07:24:02.794Z,6.20
2023-01-30T07:26:31.220Z,6.20
2023-01-30T07:28:58.410Z,6.20
2023-01-30T07:31:25.037Z,6.20
2023-01-30T07:33:51.703Z,6.30
2023-01-30T07:36:26.745Z,6.20
2023-01-30T07:38:53.538Z,6.30
2023-01-30T07:41:20.143Z,6.30
2023-01-30T07:43:49.062Z,6.30
2023-01-30T07:46:15.791Z,6.20
2023-01-30T07:48:44.176Z,6.10
2023-01-30T07:58:30.920Z,6.10
2023-01-30T08:00:56.454Z,6.10
2023-01-30T08:03:23.508Z,6.10
2023-01-30T08:05:50.542Z,6.10
2023-01-30T08:08:17.536Z,6.10
2023-01-30T08:10:46.670Z,6.10
2023-01-30T08:13:13.837Z,6.10
2023-01-30T08:15:40.797Z,6.10
2023-01-30T08:18:07.724Z,6.10
2023-01-30T08:20:34.907Z,6.10
2023-01-30T08:23:04.913Z,6.10
2023-01-30T08:25:36.097Z,6.10
2023-01-30T08:28:03.637Z,6.10
2023-01-30T08:30:30.784Z,6.10
2023-01-30T08:32:57.823Z,6.10
2023-01-30T08:35:24.499Z,6.10
2023-01-30T08:37:51.357Z,6.10
2023-01-30T08:40:18.234Z,6.10
2023-01-30T08:42:45.527Z,6.20
2023-01-30T08:45:12.284Z,6.20
2023-01-30T08:47:39.582Z,6.20
2023-01-30T08:50:06.330Z,6.30
2023-01-30T08:52:33.473Z,6.30
2023-01-30T08:55:00.182Z,6.40
2023-01-30T08:57:26.900Z,6.40
2023-01-30T08:59:53.557Z,6.40
2023-01-30T09:02:20.492Z,6.40
2023-01-30T09:04:47.071Z,6.40
2023-01-30T09:07:13.700Z,6.40
2023-01-30T09:09:40.360Z,6.50
2023-01-30T09:12:07.125Z,6.40
2023-01-30T09:14:34.084Z,6.50
2023-01-30T09:17:00.856Z,6.50
2023-01-30T09:19:28.261Z,6.50
2023-01-30T09:21:55.252Z,6.50
2023-01-30T09:24:26.473Z,6.60
2023-01-30T09:26:53.877Z,6.70
2023-01-30T09:29:20.549Z,6.60
2023-01-30T09:31:47.450Z,6.70
2023-01-30T09:34:14.196Z,6.70
2023-01-30T09:36:41.537Z,6.80
2023-01-30T09:39:08.162Z,6.80
2023-01-30T09:41:34.909Z,6.80
2023-01-30T09:44:17.275Z,6.80
2023-01-30T09:47:02.210Z,6.80
2023-01-30T09:49:49.236Z,6.80
2023-01-30T09:52:21.690Z,6.80
2023-01-30T09:54:48.530Z,6.80
2023-01-30T09:57:21.134Z,6.80
2023-01-30T09:59:51.927Z,6.80
2023-01-30T10:02:18.549Z,6.80
2023-01-30T10:05:00.171Z,6.80
2023-01-30T10:07:47.016Z,6.80
2023-01-30T10:10:27.637Z,6.90
2023-01-30T10:13:01.435Z,6.90
2023-01-30T10:15:34.177Z,6.90
2023-01-30T10:18:10.173Z,6.90
2023-01-30T10:20:55.746Z,6.90
2023-01-30T10:23:39.911Z,7.00
2023-01-30T10:26:11.369Z,7.00
2023-01-30T10:28:40.848Z,7.10
2023-01-30T10:31:13.586Z,7.20
2023-01-30T10:34:03.640Z,7.20
2023-01-30T10:36:46.754Z,7.20
2023-01-30T10:39:28.645Z,7.20
2023-01-30T10:41:58.855Z,7.20
2023-01-30T10:44:25.590Z,7.20
2023-01-30T10:46:52.478Z,7.20
2023-01-30T10:49:36.646Z,7.20
2023-01-30T10:52:20.215Z,7.20
2023-01-30T10:54:46.881Z,7.20
2023-01-30T10:57:28.138Z,7.20
2023-01-30T10:59:59.500Z,7.20
2023-01-30T11:02:32.368Z,7.20
2023-01-30T11:05:03.611Z,7.20
2023-01-30T11:07:31.806Z,7.20
2023-01-30T11:09:59.296Z,7.20
2023-01-30T11:12:26.140Z,7.20
2023-01-30T11:15:00.354Z,7.20
2023-01-30T11:17:37.407Z,7.20
2023-01-30T11:20:24.582Z,7.20
2023-01-30T11:23:00.118Z,7.30
2023-01-30T11:25:28.032Z,7.30
2023-01-30T11:28:02.276Z,7.30
2023-01-30T11:30:30.471Z,7.30
2023-01-30T11:33:17.705Z,7.30
2023-01-30T11:36:20.023Z,7.30
2023-01-30T11:39:07.137Z,7.40
2023-01-30T11:41:33.807Z,7.40
2023-01-30T11:44:04.671Z,7.30
2023-01-30T11:46:34.374Z,7.30
2023-01-30T11:49:31.896Z,7.30
2023-01-30T11:51:53.946Z,7.30
2023-01-30T11:54:23.767Z,7.30
2023-01-30T11:56:55.388Z,7.40
2023-01-30T11:59:22.214Z,7.40
2023-01-30T12:01:49.417Z,7.40
2023-01-30T12:04:16.277Z,7.40
2023-01-30T12:06:43.358Z,7.40
2023-01-30T12:09:32.434Z,7.50
2023-01-30T12:11:59.169Z,7.60
2023-01-30T12:14:25.861Z,7.70
2023-01-30T12:17:03.979Z,7.70
2023-01-30T12:19:36.918Z,7.80
2023-01-30T12:22:22.541Z,7.80
2023-01-30T12:24:59.122Z,7.80
2023-01-30T12:27:28.841Z,7.80
2023-01-30T12:29:58.580Z,7.80
2023-01-30T12:32:30.344Z,7.80
2023-01-30T12:34:57.288Z,7.90
2023-01-30T12:37:43.408Z,7.90
2023-01-30T12:40:10.152Z,8.00
2023-01-30T12:42:36.791Z,8.00
2023-01-30T12:45:12.651Z,8.00
2023-01-30T12:47:50.574Z,8.10
2023-01-30T12:50:23.545Z,8.00
2023-01-30T12:52:53.920Z,8.10
2023-01-30T12:55:41.041Z,8.10
2023-01-30T12:58:07.956Z,8.10
2023-01-30T13:00:53.528Z,8.10
2023-01-30T13:03:31.044Z,8.10
2023-01-30T13:06:07.225Z,8.00
2023-01-30T13:08:43.246Z,8.00
2023-01-30T13:11:30.895Z,8.00
2023-01-30T13:14:10.384Z,7.90
2023-01-30T13:17:09.603Z,7.80
2023-01-30T13:20:09.036Z,7.80
2023-01-30T13:22:59.399Z,7.70
2023-01-30T13:25:47.431Z,7.70
2023-01-30T13:28:16.406Z,7.70
2023-01-30T13:30:44.122Z,7.70
2023-01-30T13:33:13.460Z,7.80
2023-01-30T13:35:51.580Z,7.80
2023-01-30T13:38:21.027Z,7.90
2023-01-30T13:40:48.670Z,7.90
2023-01-30T13:43:19.552Z,8.00
2023-01-30T13:45:47.182Z,8.00
2023-01-30T13:48:17.025Z,8.10
2023-01-30T13:50:47.011Z,8.10
2023-01-30T13:53:32.797Z,8.10
2023-01-30T13:56:27.218Z,8.10
2023-01-30T13:59:03.203Z,8.20
2023-01-30T14:01:49.430Z,8.20
2023-01-30T14:04:35.969Z,8.20
2023-01-30T14:07:09.697Z,8.20
2023-01-30T14:09:37.225Z,8.20
2023-01-30T14:12:04.165Z,8.20
2023-01-30T14:14:33.152Z,8.30
2023-01-30T14:17:11.198Z,8.30
2023-01-30T14:19:37.866Z,8.40
2023-01-30T14:22:23.257Z,8.40
2023-01-30T14:25:08.933Z,8.40
2023-01-30T14:27:35.549Z,8.30
2023-01-30T14:30:02.245Z,8.10
2023-01-30T14:32:48.046Z,7.70
2023-01-30T14:35:20.400Z,7.40
2023-01-30T14:37:49.349Z,7.00
2023-01-30T14:40:21.943Z,6.70
2023-01-30T14:43:07.565Z,6.60
2023-01-30T14:45:53.966Z,6.40
2023-01-30T14:48:26.208Z,6.30
2023-01-30T14:51:12.229Z,6.20
2023-01-30T14:53:50.701Z,6.10
2023-01-30T14:56:18.575Z,6.10
2023-01-30T14:58:52.257Z,6.00
2023-01-30T15:01:19.041Z,6.00
2023-01-30T15:03:47.647Z,6.00
2023-01-30T15:06:14.440Z,6.00
2023-01-30T15:08:42.606Z,6.10
2023-01-30T15:11:17.551Z,6.10
2023-01-30T15:13:47.096Z,6.10
2023-01-30T15:16:19.464Z,6.20
2023-01-30T15:19:02.763Z,6.20
2023-01-30T15:21:37.177Z,6.20
2023-01-30T15:24:22.657Z,6.20
2023-01-30T15:26:52.552Z,6.20
2023-01-30T15:29:36.577Z,6.20
2023-01-30T15:32:15.196Z,6.30
2023-01-30T15:34:48.907Z,6.30
2023-01-30T15:37:34.583Z,6.30
2023-01-30T15:40:11.965Z,6.40
2023-01-30T15:42:38.763Z,6.40
2023-01-30T15:45:24.200Z,6.50
2023-01-30T15:48:01.819Z,6.50
2023-01-30T15:50:28.703Z,6.60
2023-01-30T15:52:56.618Z,6.60
2023-01-30T15:55:25.811Z,6.60
2023-01-30T15:57:54.289Z,6.70
2023-01-30T16:00:32.996Z,6.70
2023-01-30T16:03:01.164Z,6.80
2023-01-30T16:05:28.184Z,6.70
2023-01-30T16:07:55.832Z,6.70
2023-01-30T16:10:27.109Z,6.70
2023-01-30T16:12:56.147Z,6.80
2023-01-30T16:15:34.812Z,6.80
2023-01-30T16:18:20.700Z,6.80
2023-01-30T16:23:51.052Z,6.80
2023-01-30T16:26:18.355Z,6.90
2023-01-30T16:28:45.119Z,6.80
2023-01-30T16:31:12.045Z,6.90
2023-01-30T16:33:38.737Z,6.80
2023-01-30T16:36:06.791Z,6.80
2023-01-30T16:38:39.139Z,6.80
2023-01-30T16:41:06.009Z,6.80
2023-01-30T16:43:34.167Z,6.70
2023-01-30T16:46:19.817Z,6.70
2023-01-30T16:48:46.702Z,6.60
2023-01-30T16:51:31.557Z,6.60
2023-01-30T16:53:59.946Z,6.60
2023-01-30T16:56:27.722Z,6.60
2023-01-30T16:58:56.236Z,6.60
2023-01-30T17:01:24.646Z,6.60
2023-01-30T17:03:58.802Z,6.60
2023-01-30T17:06:33.077Z,6.60
2023-01-30T17:08:59.809Z,6.60
2023-01-30T17:11:36.942Z,6.60
2023-01-30T17:14:09.930Z,6.60
2023-01-30T17:16:36.608Z,6.60
2023-01-30T17:19:03.401Z,6.60
2023-01-30T17:21:34.855Z,6.60
2023-01-30T17:24:03.616Z,6.70
2023-01-30T17:26:30.574Z,6.70
2023-01-30T17:31:51.510Z,6.60
2023-01-30T17:34:19.544Z,6.60
2023-01-30T17:36:46.885Z,6.60
2023-01-30T17:39:15.327Z,6.60
2023-01-30T17:41:42.640Z,6.60
2023-01-30T17:44:09.351Z,6.70
2023-01-30T17:46:37.416Z,6.60
2023-01-30T17:49:04.265Z,6.60
2023-01-30T17:51:30.912Z,6.60
2023-01-30T17:53:57.574Z,6.50
2023-01-30T17:56:38.353Z,6.60
2023-01-30T17:59:06.240Z,6.60
2023-01-30T18:01:33.215Z,6.60
2023-01-30T18:03:59.923Z,6.60
2023-01-30T18:06:27.289Z,6.60
2023-01-30T18:08:54.063Z,6.60
2023-01-30T18:11:22.560Z,6.50
2023-01-30T18:13:49.688Z,6.50
2023-01-30T18:16:21.610Z,6.50
2023-01-30T18:18:48.708Z,6.40
2023-01-30T18:21:15.736Z,6.40
2023-01-30T18:23:42.681Z,6.40
2023-01-30T18:26:10.909Z,6.30
2023-01-30T18:28:38.011Z,6.30
2023-01-30T18:31:05.121Z,6.40
2023-01-30T18:33:32.563Z,6.40
2023-01-30T18:35:59.541Z,6.40
2023-01-30T18:38:27.886Z,6.50
2023-01-30T18:40:54.549Z,6.50
2023-01-30T18:43:22.584Z,6.50
2023-01-30T18:45:49.311Z,6.50
2023-01-30T18:48:15.976Z,6.60
2023-01-30T18:50:42.680Z,6.60
2023-01-30T18:53:09.340Z,6.60
2023-01-30T18:55:36.155Z,6.60
2023-01-30T18:58:02.791Z,6.60
2023-01-30T19:00:29.388Z,6.60
2023-01-30T19:02:56.111Z,6.50
2023-01-30T19:05:22.702Z,6.60
2023-01-30T19:07:49.300Z,6.60
2023-01-30T19:10:17.474Z,6.50
2023-01-30T19:13:04.185Z,6.50
2023-01-30T19:15:30.917Z,6.60
2023-01-30T19:17:58.200Z,6.60
2023-01-30T19:20:25.339Z,6.50
2023-01-30T19:22:54.680Z,6.50
2023-01-30T19:25:21.613Z,6.50
2023-01-30T19:27:48.339Z,6.50
2023-01-30T19:30:15.148Z,6.50
2023-01-30T19:32:41.804Z,6.50
2023-01-30T19:35:08.690Z,6.50
2023-01-30T19:37:35.968Z,6.50
2023-01-30T19:40:08.618Z,6.50
2023-01-30T19:42:35.749Z,6.50
2023-01-30T19:45:02.755Z,6.50
2023-01-30T19:47:31.204Z,6.50
2023-01-30T19:49:58.163Z,6.40
2023-01-30T19:52:24.967Z,6.40
2023-01-30T19:54:51.668Z,6.40
2023-01-30T19:57:18.514Z,6.50
2023-01-30T19:59:45.213Z,6.40
2023-01-30T20:02:12.550Z,6.40
2023-01-30T20:04:40.521Z,6.40
2023-01-30T20:07:07.260Z,6.40
2023-01-30T20:09:34.408Z,6.40
2023-01-30T20:12:01.169Z,6.40
2023-01-30T20:14:27.783Z,6.40
2023-01-30T20:16:54.517Z,6.40
2023-01-30T20:19:21.309Z,6.40
2023-01-30T20:21:48.075Z,6.40
2023-01-30T20:24:15.309Z,6.40
2023-01-30T20:26:42.470Z,6.40
2023-01-30T20:29:09.852Z,6.40
2023-01-30T20:31:38.931Z,6.30
2023-01-30T20:34:06.532Z,6.30
2023-01-30T20:36:33.727Z,6.30
2023-01-30T20:39:06.440Z,6.30
2023-01-30T20:41:35.477Z,6.20
2023-01-30T20:44:02.381Z,6.20
2023-01-30T20:46:40.775Z,6.10
2023-01-30T20:49:10.903Z,6.10
2023-01-30T20:51:37.614Z,6.00
2023-01-30T20:54:06.051Z,5.90
2023-01-30T20:56:34.221Z,5.80
2023-01-30T20:59:01.508Z,5.80
2023-01-30T21:01:28.783Z,5.70
2023-01-30T21:03:55.910Z,5.60
2023-01-30T21:06:41.914Z,5.60
2023-01-30T21:09:12.620Z,5.60
2023-01-30T21:11:39.649Z,5.70
2023-01-30T21:14:06.467Z,5.70
2023-01-30T21:16:34.518Z,5.70
2023-01-30T21:19:04.118Z,5.70
2023-01-30T21:21:32.671Z,5.70
2023-01-30T21:24:01.380Z,5.80
2023-01-30T21:26:29.170Z,5.80
2023-01-30T21:28:56.193Z,5.80
2023-01-30T21:31:24.260Z,5.80
2023-01-30T21:33:51.168Z,5.80
2023-01-30T21:36:18.280Z,5.80
2023-01-30T21:39:03.908Z,5.90
2023-01-30T21:41:56.689Z,5.80
2023-01-30T21:44:24.613Z,5.80
2023-01-30T21:46:51.252Z,5.80
2023-01-30T21:49:18.419Z,5.80
2023-01-30T21:51:46.218Z,5.80
2023-01-30T21:54:13.145Z,5.90
2023-01-30T21:56:40.146Z,5.80
2023-01-30T21:59:07.589Z,5.80
2023-01-30T22:01:35.259Z,5.80
2023-01-30T22:04:02.991Z,5.80
2023-01-30T22:06:29.694Z,5.80
2023-01-30T22:08:57.028Z,5.80
2023-01-30T22:11:23.770Z,5.90
2023-01-30T22:13:51.009Z,5.80
2023-01-30T22:16:20.574Z,5.80
2023-01-30T22:18:50.830Z,5.90
2023-01-30T22:21:19.484Z,5.80
2023-01-30T22:23:47.118Z,5.90
2023-01-30T22:26:14.691Z,5.80
2023-01-30T22:28:41.614Z,5.80
2023-01-30T22:31:09.885Z,5.80
2023-01-30T22:33:37.180Z,5.80
2023-01-30T22:36:05.081Z,5.80
2023-01-30T22:38:31.779Z,5.80
2023-01-30T22:41:00.855Z,5.80
2023-01-30T22:43:28.430Z,5.90
2023-01-30T22:46:05.705Z,5.80
2023-01-30T22:48:32.781Z,5.80
2023-01-30T22:51:07.015Z,5.80
2023-01-30T22:53:35.071Z,5.80
2023-01-30T22:56:02.679Z,5.80
2023-01-30T22:58:30.186Z,5.80
2023-01-30T23:01:03.537Z,5.80
2023-01-30T23:03:30.267Z,5.70
2023-01-30T23:06:00.883Z,5.70
2023-01-30T23:08:31.385Z,5.60
2023-01-30T23:11:08.798Z,5.60
2023-01-30T23:13:35.863Z,5.50
2023-01-30T23:16:03.447Z,5.40
2023-01-30T23:18:48.987Z,5.40
2023-01-30T23:21:16.243Z,5.30
2023-01-30T23:23:43.702Z,5.20
2023-01-30T23:26:10.984Z,5.20
2023-01-30T23:28:37.812Z,5.10
2023-01-30T23:31:05.667Z,5.10
2023-01-30T23:33:32.479Z,5.10
2023-01-30T23:36:03.391Z,5.00
2023-01-30T23:38:30.055Z,5.00
2023-01-30T23:41:04.479Z,5.00
2023-01-30T23:43:31.316Z,4.90
2023-01-30T23:45:59.111Z,4.90
2023-01-30T23:48:25.753Z,4.80
2023-01-30T23:50:52.468Z,4.80
2023-01-30T23:53:19.232Z,4.80
2023-01-30T23:55:52.656Z,4.80
2023-01-30T23:58:19.385Z,4.80
